Time;durP1;ratioP1;P1;durP2;ratioP2;P2;SDS_P1;SDS_P2;PMS_P1;PMS_P2;Temp;Humidity;BMP_temperature;BMP_pressure;BME280_temperature;BME280_humidity;BME280_pressure;Samples;Min_cycle;Max_cycle;Signal;HPM_P1;HPM_P2
2023/03/20 00:02:04;;;;;;;;;;;11.60;99.90;;;;;;5017271;28;20023;-91
2023/03/20 00:04:30;;;;;;;;;;;11.60;99.90;;;;;;5019885;28;19909;-91
2023/03/20 00:07:23;;;;;;;;;;;11.50;99.90;;;;;;5002579;28;19914;-91
2023/03/20 00:09:57;;;;;;;;;;;11.50;99.90;;;;;;5005623;28;19913;-91
2023/03/20 00:12:25;;;;;;;;;;;11.40;99.90;;;;;;5016720;28;19920;-91
2023/03/20 00:14:51;;;;;;;;;;;11.40;99.90;;;;;;5001591;28;20012;-90
2023/03/20 00:17:19;;;;;;;;;;;11.50;99.90;;;;;;5020655;28;19953;-93
2023/03/20 00:19:45;;;;;;;;;;;11.50;99.90;;;;;;5017042;28;19925;-91
2023/03/20 00:22:11;;;;;;;;;;;11.40;99.90;;;;;;5016457;28;19909;-91
2023/03/20 00:24:39;;;;;;;;;;;11.40;99.90;;;;;;5002973;28;19913;-91
2023/03/20 00:27:05;;;;;;;;;;;11.50;99.90;;;;;;5016200;28;19909;-88
2023/03/20 00:29:31;;;;;;;;;;;11.40;99.90;;;;;;5015720;28;19920;-88
2023/03/20 00:31:58;;;;;;;;;;;11.30;99.90;;;;;;4999639;28;19913;-89
2023/03/20 00:34:25;;;;;;;;;;;11.30;99.90;;;;;;4999488;28;19918;-89
2023/03/20 00:36:51;;;;;;;;;;;11.30;99.90;;;;;;4980148;28;19910;-88
2023/03/20 00:39:17;;;;;;;;;;;11.20;99.90;;;;;;4979940;28;19932;-89
2023/03/20 00:42:05;;;;;;;;;;;11.10;99.90;;;;;;4980340;28;19968;-89
2023/03/20 00:44:33;;;;;;;;;;;11.10;99.90;;;;;;4980836;28;20422;-88
2023/03/20 00:47:01;;;;;;;;;;;11.00;99.90;;;;;;4979958;28;19917;-89
2023/03/20 00:49:29;;;;;;;;;;;11.00;99.90;;;;;;4979812;28;19921;-88
2023/03/20 00:51:55;;;;;;;;;;;11.00;99.90;;;;;;4980159;28;19910;-90
2023/03/20 00:54:21;;;;;;;;;;;11.00;99.90;;;;;;4984823;28;19929;-90
2023/03/20 00:57:06;;;;;;;;;;;11.00;99.90;;;;;;4981723;28;19910;-91
2023/03/20 00:59:34;;;;;;;;;;;11.00;99.90;;;;;;4980365;28;19910;-90
2023/03/20 01:02:01;;;;;;;;;;;11.00;99.90;;;;;;4980292;28;19917;-90
2023/03/20 01:04:37;;;;;;;;;;;10.90;99.90;;;;;;4979828;28;20004;-90
2023/03/20 01:07:03;;;;;;;;;;;10.90;99.90;;;;;;4980938;28;19913;-90
2023/03/20 01:09:29;;;;;;;;;;;10.90;99.90;;;;;;4979775;28;19960;-88
2023/03/20 01:11:55;;;;;;;;;;;10.80;99.90;;;;;;4979534;28;19914;-88
2023/03/20 01:14:21;;;;;;;;;;;10.80;99.90;;;;;;4983444;28;19957;-91
2023/03/20 01:16:46;;;;;;;;;;;10.80;99.90;;;;;;4980127;28;19959;-90
2023/03/20 01:19:13;;;;;;;;;;;10.80;99.90;;;;;;4963573;28;19914;-91
2023/03/20 01:21:39;;;;;;;;;;;10.80;99.90;;;;;;4979693;28;19910;-90
2023/03/20 01:24:05;;;;;;;;;;;10.80;99.90;;;;;;4979840;28;20596;-90
2023/03/20 01:26:33;;;;;;;;;;;10.80;99.90;;;;;;4980199;28;20003;-88
2023/03/20 01:28:59;;;;;;;;;;;10.90;99.90;;;;;;4982136;28;20008;-89
2023/03/20 01:31:25;;;;;;;;;;;10.80;99.90;;;;;;4995123;28;19985;-89
2023/03/20 01:33:51;;;;;;;;;;;10.80;99.90;;;;;;4979699;28;19928;-91
2023/03/20 01:36:19;;;;;;;;;;;10.80;99.90;;;;;;4979588;28;19914;-91
2023/03/20 01:38:45;;;;;;;;;;;10.80;99.90;;;;;;4996149;28;20363;-89
2023/03/20 01:41:15;;;;;;;;;;;10.80;99.90;;;;;;4995045;28;19910;-89
2023/03/20 01:43:41;;;;;;;;;;;10.80;99.90;;;;;;4995644;28;19910;-90
2023/03/20 01:46:10;;;;;;;;;;;10.80;99.90;;;;;;4995278;28;20351;-91
2023/03/20 01:48:48;;;;;;;;;;;10.70;99.90;;;;;;4995551;28;20264;-90
2023/03/20 01:51:14;;;;;;;;;;;10.70;99.90;;;;;;4995581;28;19914;-90
2023/03/20 01:53:40;;;;;;;;;;;10.70;99.90;;;;;;4995421;28;19910;-91
2023/03/20 01:56:06;;;;;;;;;;;10.70;99.90;;;;;;4995691;28;19944;-91
2023/03/20 01:58:36;;;;;;;;;;;10.70;99.90;;;;;;4995268;28;19914;-89
2023/03/20 02:01:02;;;;;;;;;;;10.70;99.90;;;;;;4995232;28;20278;-89
2023/03/20 02:03:28;;;;;;;;;;;10.70;99.90;;;;;;4979081;28;19913;-89
2023/03/20 02:05:54;;;;;;;;;;;10.60;99.90;;;;;;4979568;28;19972;-88
2023/03/20 02:08:23;;;;;;;;;;;10.60;99.90;;;;;;4996849;28;19949;-89
2023/03/20 02:10:49;;;;;;;;;;;10.70;99.90;;;;;;4997764;28;20012;-89
2023/03/20 02:13:15;;;;;;;;;;;10.70;99.90;;;;;;4996365;28;19964;-89
2023/03/20 02:15:59;;;;;;;;;;;10.70;99.90;;;;;;4994693;28;19910;-93
2023/03/20 02:18:25;;;;;;;;;;;10.70;99.90;;;;;;4996257;28;19910;-94
2023/03/20 02:21:08;;;;;;;;;;;10.70;99.90;;;;;;4995833;28;19917;-92
2023/03/20 02:23:52;;;;;;;;;;;10.70;99.90;;;;;;4995241;28;20013;-93
2023/03/20 02:26:37;;;;;;;;;;;10.70;99.90;;;;;;4995658;28;19992;-92
2023/03/20 02:29:19;;;;;;;;;;;10.70;99.90;;;;;;4995192;28;19917;-93
2023/03/20 02:32:09;;;;;;;;;;;10.70;99.90;;;;;;4994867;28;20001;-93
2023/03/20 02:34:45;;;;;;;;;;;10.70;99.90;;;;;;4995135;28;19910;-90
2023/03/20 02:37:13;;;;;;;;;;;10.70;99.90;;;;;;4995823;28;19910;-90
2023/03/20 02:39:42;;;;;;;;;;;10.70;99.90;;;;;;4995416;28;19933;-91
2023/03/20 02:42:19;;;;;;;;;;;10.60;99.90;;;;;;4995809;28;19910;-91
2023/03/20 02:44:50;;;;;;;;;;;10.60;99.90;;;;;;4995026;28;20259;-90
2023/03/20 02:47:24;;;;;;;;;;;10.60;99.90;;;;;;4994693;28;19917;-90
2023/03/20 02:50:01;;;;;;;;;;;10.60;99.90;;;;;;4994943;28;19921;-90
2023/03/20 02:52:29;;;;;;;;;;;10.60;99.90;;;;;;4994728;28;19996;-91
2023/03/20 02:54:58;;;;;;;;;;;10.50;99.90;;;;;;4994704;28;19910;-91
2023/03/20 02:57:38;;;;;;;;;;;10.50;99.90;;;;;;4994662;28;19926;-90
2023/03/20 03:00:11;;;;;;;;;;;10.40;99.90;;;;;;4994612;28;19921;-91
2023/03/20 03:02:38;;;;;;;;;;;10.40;99.90;;;;;;4994954;28;20011;-91
2023/03/20 03:05:08;;;;;;;;;;;10.40;99.90;;;;;;4994557;28;20025;-91
2023/03/20 03:07:34;;;;;;;;;;;10.40;99.90;;;;;;4995367;28;19917;-91
2023/03/20 03:10:03;;;;;;;;;;;10.40;99.90;;;;;;4978967;28;20295;-91
2023/03/20 03:12:31;;;;;;;;;;;10.40;99.90;;;;;;4994341;28;19914;-90
2023/03/20 03:15:01;;;;;;;;;;;10.30;99.90;;;;;;4994362;28;19917;-90
2023/03/20 03:17:28;;;;;;;;;;;10.30;99.90;;;;;;4994632;28;19914;-91
2023/03/20 03:19:56;;;;;;;;;;;10.30;99.90;;;;;;4994449;28;19917;-91
2023/03/20 03:22:24;;;;;;;;;;;10.30;99.90;;;;;;4994580;28;19916;-91
2023/03/20 03:24:51;;;;;;;;;;;10.20;99.90;;;;;;4994351;28;19910;-90
2023/03/20 03:27:37;;;;;;;;;;;10.20;99.90;;;;;;4994023;28;19910;-91
2023/03/20 03:30:15;;;;;;;;;;;10.10;99.90;;;;;;4993606;28;20138;-90
2023/03/20 03:32:44;;;;;;;;;;;10.10;99.90;;;;;;4994993;28;20001;-90
2023/03/20 03:35:14;;;;;;;;;;;10.10;99.90;;;;;;4997068;28;20266;-91
2023/03/20 03:37:45;;;;;;;;;;;10.00;99.90;;;;;;4998077;28;19914;-90
2023/03/20 03:40:34;;;;;;;;;;;10.10;99.90;;;;;;4998212;28;19961;-90
2023/03/20 03:43:08;;;;;;;;;;;10.00;99.90;;;;;;5005960;28;19933;-93
2023/03/20 03:45:53;;;;;;;;;;;9.90;99.90;;;;;;5002753;28;20314;-91
2023/03/20 03:48:29;;;;;;;;;;;9.90;99.90;;;;;;4998702;28;19910;-90
2023/03/20 03:51:04;;;;;;;;;;;9.90;99.90;;;;;;4997518;28;19914;-91
2023/03/20 03:53:34;;;;;;;;;;;9.80;99.90;;;;;;4997732;28;19909;-91
2023/03/20 03:56:05;;;;;;;;;;;9.80;99.90;;;;;;4998064;28;19909;-91
2023/03/20 03:58:34;;;;;;;;;;;9.80;99.90;;;;;;4997520;28;19996;-90
2023/03/20 04:01:01;;;;;;;;;;;9.80;99.90;;;;;;4998586;28;20375;-93
2023/03/20 04:03:32;;;;;;;;;;;9.80;99.90;;;;;;4999016;28;19945;-91
2023/03/20 04:06:11;;;;;;;;;;;9.70;99.90;;;;;;5005699;28;19914;-95
2023/03/20 04:08:40;;;;;;;;;;;9.70;99.90;;;;;;5002712;28;19910;-95
2023/03/20 04:11:07;;;;;;;;;;;9.70;99.90;;;;;;5011731;28;19934;-90
2023/03/20 04:13:33;;;;;;;;;;;9.60;99.90;;;;;;5007979;28;20012;-89
2023/03/20 04:15:59;;;;;;;;;;;9.50;99.90;;;;;;4982127;28;19957;-89
2023/03/20 04:18:25;;;;;;;;;;;9.50;99.90;;;;;;4996658;28;19948;-91
2023/03/20 04:20:51;;;;;;;;;;;9.50;99.90;;;;;;4980844;28;19914;-90
2023/03/20 04:23:16;;;;;;;;;;;9.40;99.90;;;;;;4981015;28;20260;-90
2023/03/20 04:25:42;;;;;;;;;;;9.40;99.90;;;;;;4980876;28;20025;-91
2023/03/20 04:28:15;;;;;;;;;;;9.40;99.90;;;;;;4980458;28;19914;-91
2023/03/20 04:30:46;;;;;;;;;;;9.40;99.90;;;;;;5003685;28;19921;-93
2023/03/20 04:33:16;;;;;;;;;;;9.30;99.90;;;;;;5004277;28;19914;-93
2023/03/20 04:35:44;;;;;;;;;;;9.30;99.90;;;;;;5002714;28;19910;-93
2023/03/20 04:44:29;;;;;;;;;;;9.20;99.90;;;;;;4964208;28;19917;-92
2023/03/20 04:46:55;;;;;;;;;;;9.10;99.90;;;;;;4998109;28;19913;-91
2023/03/20 04:49:23;;;;;;;;;;;9.10;99.90;;;;;;4996765;28;19981;-91
2023/03/20 04:51:49;;;;;;;;;;;9.10;99.90;;;;;;4981332;28;20298;-91
2023/03/20 04:54:15;;;;;;;;;;;9.10;99.90;;;;;;4996398;28;19948;-90
2023/03/20 04:56:40;;;;;;;;;;;9.10;99.90;;;;;;4980039;28;19914;-91
2023/03/20 04:59:11;;;;;;;;;;;9.10;99.90;;;;;;4980247;28;19953;-91
2023/03/20 05:01:37;;;;;;;;;;;9.10;99.90;;;;;;4980578;28;19914;-91
2023/03/20 05:04:03;;;;;;;;;;;9.10;99.90;;;;;;4996420;28;19963;-90
2023/03/20 05:06:32;;;;;;;;;;;9.00;99.90;;;;;;4996003;28;19910;-91
2023/03/20 05:08:58;;;;;;;;;;;9.00;99.90;;;;;;4979709;28;19930;-91
2023/03/20 05:11:29;;;;;;;;;;;8.90;99.90;;;;;;4996170;28;19914;-91
2023/03/20 05:13:58;;;;;;;;;;;8.90;99.90;;;;;;4997797;28;19910;-93
2023/03/20 05:16:24;;;;;;;;;;;8.90;99.90;;;;;;4999321;28;20012;-93
2023/03/20 05:18:53;;;;;;;;;;;8.80;99.90;;;;;;4998212;28;20358;-91
2023/03/20 05:21:18;;;;;;;;;;;8.80;99.90;;;;;;4980324;28;19964;-91
2023/03/20 05:23:47;;;;;;;;;;;8.90;99.90;;;;;;4995716;28;19968;-89
2023/03/20 05:26:16;;;;;;;;;;;8.80;99.90;;;;;;4995743;28;19959;-89
2023/03/20 05:28:44;;;;;;;;;;;8.80;99.90;;;;;;4995344;28;19910;-88
2023/03/20 05:31:16;;;;;;;;;;;8.80;99.90;;;;;;4979131;28;19964;-89
2023/03/20 05:33:42;;;;;;;;;;;8.80;99.90;;;;;;4980142;28;19918;-89
2023/03/20 05:36:08;;;;;;;;;;;8.80;99.90;;;;;;4995742;28;19914;-90
2023/03/20 05:38:33;;;;;;;;;;;8.80;99.90;;;;;;4996032;28;19914;-91
2023/03/20 05:41:02;;;;;;;;;;;8.80;99.90;;;;;;4979731;28;19960;-90
2023/03/20 05:43:30;;;;;;;;;;;8.90;99.90;;;;;;4995451;28;19949;-91
2023/03/20 05:45:56;;;;;;;;;;;8.90;99.90;;;;;;4979445;28;20359;-92
2023/03/20 05:48:22;;;;;;;;;;;8.80;99.90;;;;;;4980148;28;19914;-89
2023/03/20 05:50:47;;;;;;;;;;;8.80;99.90;;;;;;4999292;28;19914;-88
2023/03/20 05:53:15;;;;;;;;;;;8.70;99.90;;;;;;4997610;28;20418;-89
2023/03/20 05:55:44;;;;;;;;;;;8.80;99.90;;;;;;4995621;28;19994;-89
2023/03/20 05:58:12;;;;;;;;;;;8.80;99.90;;;;;;4978141;28;19953;-88
2023/03/20 06:00:40;;;;;;;;;;;8.80;99.90;;;;;;4978807;28;19921;-89
2023/03/20 06:03:11;;;;;;;;;;;8.70;99.90;;;;;;5007687;28;19936;-94
2023/03/20 06:05:37;;;;;;;;;;;8.70;99.90;;;;;;5017779;28;19921;-94
2023/03/20 06:11:25;;;;;;;;;;;8.70;99.90;;;;;;5005936;28;19925;-90
2023/03/20 06:13:53;;;;;;;;;;;8.70;99.90;;;;;;4996753;28;19917;-90
2023/03/20 06:16:19;;;;;;;;;;;8.70;99.90;;;;;;4979367;28;20367;-90
2023/03/20 06:18:44;;;;;;;;;;;8.70;99.90;;;;;;4978643;28;19964;-90
2023/03/20 06:21:37;;;;;;;;;;;8.60;99.90;;;;;;4988834;28;19913;-90
2023/03/20 06:24:03;;;;;;;;;;;8.70;99.90;;;;;;4995516;28;19909;-91
2023/03/20 06:26:31;;;;;;;;;;;8.70;99.90;;;;;;4984867;28;19914;-89
2023/03/20 06:28:58;;;;;;;;;;;8.70;99.90;;;;;;4995842;28;19916;-89
2023/03/20 06:31:24;;;;;;;;;;;8.70;99.90;;;;;;4993875;28;19924;-88
2023/03/20 06:33:53;;;;;;;;;;;8.70;99.90;;;;;;4994202;28;19913;-89
2023/03/20 06:36:21;;;;;;;;;;;8.70;99.90;;;;;;4994274;28;19910;-89
2023/03/20 06:38:47;;;;;;;;;;;8.70;99.90;;;;;;4994034;28;19910;-89
2023/03/20 06:41:17;;;;;;;;;;;8.70;99.90;;;;;;4981485;28;20015;-89
2023/03/20 06:43:46;;;;;;;;;;;8.80;99.90;;;;;;4994686;28;20282;-91
2023/03/20 06:46:12;;;;;;;;;;;8.80;99.90;;;;;;4980660;28;20048;-91
2023/03/20 06:48:40;;;;;;;;;;;8.70;99.90;;;;;;4979946;28;19976;-90
2023/03/20 06:51:08;;;;;;;;;;;8.70;99.90;;;;;;4996136;28;19929;-90
2023/03/20 06:53:35;;;;;;;;;;;8.80;99.90;;;;;;4995847;28;20351;-91
2023/03/20 06:56:01;;;;;;;;;;;8.80;99.90;;;;;;4996723;28;19910;-91
2023/03/20 06:58:26;;;;;;;;;;;8.80;99.90;;;;;;4995229;28;20012;-88
2023/03/20 07:00:53;;;;;;;;;;;8.80;99.90;;;;;;4980118;28;19913;-89
2023/03/20 07:03:22;;;;;;;;;;;8.80;99.90;;;;;;4979141;28;19997;-89
2023/03/20 07:05:54;;;;;;;;;;;8.80;99.90;;;;;;4995307;28;19992;-90
2023/03/20 07:08:25;;;;;;;;;;;8.80;99.90;;;;;;4998327;28;19910;-90
2023/03/20 07:10:53;;;;;;;;;;;8.80;99.90;;;;;;4999549;28;20041;-90
2023/03/20 07:13:22;;;;;;;;;;;8.90;99.90;;;;;;4998762;28;20390;-90
2023/03/20 07:15:47;;;;;;;;;;;8.90;99.90;;;;;;4999851;28;20405;-89
2023/03/20 07:18:16;;;;;;;;;;;8.90;99.90;;;;;;4982991;28;20035;-88
2023/03/20 07:20:41;;;;;;;;;;;8.90;99.90;;;;;;4981818;28;19914;-88
2023/03/20 07:23:07;;;;;;;;;;;8.90;99.90;;;;;;4997882;28;19917;-88
2023/03/20 07:25:33;;;;;;;;;;;8.90;99.90;;;;;;4998100;28;19910;-88
2023/03/20 07:27:58;;;;;;;;;;;8.90;99.90;;;;;;4982368;28;19936;-88
2023/03/20 07:30:29;;;;;;;;;;;8.90;99.90;;;;;;4997558;28;19914;-88
2023/03/20 07:32:55;;;;;;;;;;;9.00;99.90;;;;;;4982577;28;19972;-90
2023/03/20 07:35:21;;;;;;;;;;;8.90;99.90;;;;;;4983609;28;20279;-90
2023/03/20 07:37:46;;;;;;;;;;;9.00;99.90;;;;;;4982766;28;19977;-90
2023/03/20 07:40:12;;;;;;;;;;;9.00;99.90;;;;;;4966360;28;19914;-90
2023/03/20 07:42:38;;;;;;;;;;;9.00;99.90;;;;;;4981691;28;19909;-90
2023/03/20 07:45:13;;;;;;;;;;;9.00;99.90;;;;;;4982507;28;20406;-91
2023/03/20 07:47:39;;;;;;;;;;;9.00;99.90;;;;;;4982677;28;19917;-90
2023/03/20 07:50:05;;;;;;;;;;;9.00;99.90;;;;;;4981474;28;19918;-90
2023/03/20 07:52:30;;;;;;;;;;;9.00;99.90;;;;;;4981367;28;19910;-90
2023/03/20 07:54:56;;;;;;;;;;;9.00;99.90;;;;;;4982021;28;19909;-90
2023/03/20 07:57:22;;;;;;;;;;;8.90;99.90;;;;;;4965278;28;20283;-89
2023/03/20 07:59:47;;;;;;;;;;;9.00;99.90;;;;;;4965472;28;19957;-90
2023/03/20 08:02:16;;;;;;;;;;;8.80;99.90;;;;;;4965640;28;20009;-90
2023/03/20 08:04:43;;;;;;;;;;;9.00;99.90;;;;;;4980914;28;19909;-90
2023/03/20 08:07:08;;;;;;;;;;;8.90;99.90;;;;;;4981168;28;19945;-90
2023/03/20 08:09:34;;;;;;;;;;;8.90;99.90;;;;;;4964690;28;20061;-90
2023/03/20 08:12:00;;;;;;;;;;;8.90;99.90;;;;;;4965136;28;19918;-91
2023/03/20 08:14:25;;;;;;;;;;;9.00;99.90;;;;;;4981438;28;19917;-90
2023/03/20 08:16:51;;;;;;;;;;;9.00;99.90;;;;;;4973921;28;19920;-94
2023/03/20 08:19:17;;;;;;;;;;;9.00;99.90;;;;;;4963432;28;20000;-93
2023/03/20 08:21:42;;;;;;;;;;;9.00;99.90;;;;;;4974913;28;19960;-94
2023/03/20 08:24:08;;;;;;;;;;;9.00;99.90;;;;;;4993442;28;19914;-93
2023/03/20 08:26:34;;;;;;;;;;;9.00;99.90;;;;;;4990642;28;19909;-92
2023/03/20 08:29:02;;;;;;;;;;;9.10;99.90;;;;;;4993475;28;20000;-93
2023/03/20 08:31:31;;;;;;;;;;;9.20;99.90;;;;;;4989280;28;19928;-95
2023/03/20 08:33:56;;;;;;;;;;;9.10;99.90;;;;;;5005532;28;19910;-94
2023/03/20 08:36:22;;;;;;;;;;;9.10;99.90;;;;;;5004170;28;19916;-95
2023/03/20 08:38:48;;;;;;;;;;;9.10;99.90;;;;;;5001542;28;19910;-91
2023/03/20 08:41:14;;;;;;;;;;;9.20;99.90;;;;;;5009475;28;19914;-91
2023/03/20 08:43:40;;;;;;;;;;;9.20;99.90;;;;;;5007298;28;19917;-91
2023/03/20 08:46:05;;;;;;;;;;;9.20;99.90;;;;;;4995553;28;20000;-91
2023/03/20 08:48:35;;;;;;;;;;;9.20;99.90;;;;;;5017037;28;19932;-91
2023/03/20 08:54:03;;;;;;;;;;;9.20;99.90;;;;;;5004800;28;20471;-89
2023/03/20 08:56:29;;;;;;;;;;;9.20;99.90;;;;;;5006235;28;19960;-91
2023/03/20 08:59:02;;;;;;;;;;;9.30;99.90;;;;;;4992613;28;20390;-91
2023/03/20 09:01:28;;;;;;;;;;;9.20;99.90;;;;;;5012884;28;19910;-94
2023/03/20 09:03:54;;;;;;;;;;;9.30;99.90;;;;;;4983026;28;19914;-89
2023/03/20 09:06:20;;;;;;;;;;;9.30;99.90;;;;;;4995402;28;19924;-88
2023/03/20 09:08:46;;;;;;;;;;;9.30;99.90;;;;;;5004114;28;19955;-89
2023/03/20 09:11:11;;;;;;;;;;;9.40;99.90;;;;;;5003921;28;20318;-89
2023/03/20 09:13:39;;;;;;;;;;;9.40;99.90;;;;;;5003490;28;19913;-90
2023/03/20 09:16:05;;;;;;;;;;;9.40;99.90;;;;;;5010682;28;19972;-89
2023/03/20 09:18:31;;;;;;;;;;;9.50;99.90;;;;;;5000779;28;19910;-90
2023/03/20 09:21:00;;;;;;;;;;;9.50;99.90;;;;;;4995046;28;19910;-90
2023/03/20 09:23:28;;;;;;;;;;;9.40;99.90;;;;;;5005873;28;19910;-89
2023/03/20 09:25:56;;;;;;;;;;;9.50;99.90;;;;;;5011578;28;19925;-90
2023/03/20 09:28:28;;;;;;;;;;;9.50;99.90;;;;;;5005155;28;19917;-91
2023/03/20 09:34:01;;;;;;;;;;;9.50;99.90;;;;;;5003869;28;19924;-94
2023/03/20 09:37:07;;;;;;;;;;;;;;;;;;;;;
2023/03/20 09:40:18;;;;;;;;;;;9.60;99.90;;;;;;5003181;28;19910;-94
2023/03/20 09:46:09;;;;;;;;;;;9.70;99.90;;;;;;4934634;29;19953;-90
2023/03/20 09:49:05;;;;;;;;;;;9.80;99.90;;;;;;4918239;29;19911;-89
2023/03/20 09:58:14;;;;;;;;;;;9.70;99.90;;;;;;4902880;28;19966;-91
2023/03/20 10:00:42;;;;;;;;;;;9.70;99.90;;;;;;4952377;28;19910;-90
2023/03/20 10:09:50;;;;;;;;;;;;;;;;;;;;;
2023/03/20 10:21:43;;;;;;;;;;;9.70;99.90;;;;;;5113268;23;19909;-92
2023/03/20 10:24:24;;;;;;;;;;;9.70;99.90;;;;;;5029932;28;19910;-93
2023/03/20 10:26:51;;;;;;;;;;;9.70;99.90;;;;;;5010924;28;19955;-93
2023/03/20 10:29:28;;;;;;;;;;;9.80;99.90;;;;;;5014953;28;19916;-93
2023/03/20 10:32:19;;;;;;;;;;;9.80;99.90;;;;;;5013562;28;19923;-93
2023/03/20 10:37:46;;;;;;;;;;;9.80;99.90;;;;;;5190782;22;20009;-92
2023/03/20 10:40:18;;;;;;;;;;;9.80;99.90;;;;;;5048695;28;20424;-94
2023/03/20 10:42:49;;;;;;;;;;;9.80;99.90;;;;;;5047282;28;20011;-96
2023/03/20 10:45:15;;;;;;;;;;;10.00;99.90;;;;;;5058236;28;20415;-93
2023/03/20 10:47:42;;;;;;;;;;;9.80;99.90;;;;;;5050716;28;19928;-91
2023/03/20 10:50:18;;;;;;;;;;;9.80;99.90;;;;;;5056962;28;19928;-92
2023/03/20 10:53:07;;;;;;;;;;;9.90;99.90;;;;;;5046447;28;19967;-92
2023/03/20 10:55:41;;;;;;;;;;;9.90;99.90;;;;;;5044100;28;19916;-92
2023/03/20 10:58:13;;;;;;;;;;;10.10;99.90;;;;;;5049723;28;19913;-95
2023/03/20 11:00:47;;;;;;;;;;;9.90;99.90;;;;;;5051544;28;19913;-96
2023/03/20 11:03:32;;;;;;;;;;;9.90;99.90;;;;;;5059724;28;19916;-94
2023/03/20 11:06:16;;;;;;;;;;;10.00;99.90;;;;;;5047809;28;20376;-92
2023/03/20 11:08:47;;;;;;;;;;;10.00;99.90;;;;;;5044224;28;19913;-93
2023/03/20 11:11:20;;;;;;;;;;;9.90;99.90;;;;;;5041533;28;19929;-92
2023/03/20 11:13:48;;;;;;;;;;;10.00;99.90;;;;;;5047939;28;19963;-91
2023/03/20 11:16:18;;;;;;;;;;;10.00;99.90;;;;;;5048619;28;19963;-92
2023/03/20 11:18:44;;;;;;;;;;;10.00;99.90;;;;;;5044358;28;19913;-94
2023/03/20 11:21:18;;;;;;;;;;;10.00;99.90;;;;;;5052385;28;19921;-93
2023/03/20 11:23:44;;;;;;;;;;;10.00;99.90;;;;;;5041928;28;19912;-92
2023/03/20 11:26:13;;;;;;;;;;;10.00;99.90;;;;;;5047402;28;19916;-94
2023/03/20 11:28:49;;;;;;;;;;;10.00;99.90;;;;;;5048658;28;19996;-92
2023/03/20 11:31:23;;;;;;;;;;;10.10;99.90;;;;;;5051948;28;19962;-91
2023/03/20 11:34:08;;;;;;;;;;;10.00;99.90;;;;;;5048902;28;19912;-91
2023/03/20 11:36:35;;;;;;;;;;;10.10;99.90;;;;;;5036312;28;19922;-89
2023/03/20 11:39:05;;;;;;;;;;;10.00;99.90;;;;;;5025306;28;20254;-91
2023/03/20 11:41:31;;;;;;;;;;;10.00;99.90;;;;;;5036872;28;19978;-93
2023/03/20 11:43:57;;;;;;;;;;;10.00;99.90;;;;;;5034129;28;19912;-91
2023/03/20 11:46:23;;;;;;;;;;;10.00;99.90;;;;;;5024925;28;19917;-89
2023/03/20 11:49:15;;;;;;;;;;;10.00;99.90;;;;;;5025927;28;19917;-90
2023/03/20 11:51:40;;;;;;;;;;;10.00;99.90;;;;;;5055547;28;19960;-88
2023/03/20 11:54:14;;;;;;;;;;;10.10;99.90;;;;;;5021640;28;19936;-91
2023/03/20 11:56:57;;;;;;;;;;;10.10;99.90;;;;;;5055948;28;19963;-90
2023/03/20 11:59:38;;;;;;;;;;;10.10;99.90;;;;;;5040896;28;19916;-93
2023/03/20 12:02:19;;;;;;;;;;;10.20;99.90;;;;;;5056433;28;19905;-89
2023/03/20 12:04:46;;;;;;;;;;;10.20;99.90;;;;;;5063271;28;20376;-91
2023/03/20 12:07:15;;;;;;;;;;;10.20;99.90;;;;;;5029857;28;19928;-90
2023/03/20 12:09:44;;;;;;;;;;;10.20;99.90;;;;;;5033060;28;20292;-90
2023/03/20 12:15:12;;;;;;;;;;;10.30;99.90;;;;;;5051847;28;20459;-89
2023/03/20 12:17:38;;;;;;;;;;;10.10;99.90;;;;;;5031971;28;19909;-89
2023/03/20 12:20:19;;;;;;;;;;;10.20;99.90;;;;;;5041884;28;19931;-88
2023/03/20 12:22:53;;;;;;;;;;;10.20;99.90;;;;;;5042738;28;19916;-89
2023/03/20 12:25:25;;;;;;;;;;;10.20;99.90;;;;;;5043180;28;20372;-92
2023/03/20 12:27:57;;;;;;;;;;;10.20;99.90;;;;;;5042881;28;19903;-95
2023/03/20 12:30:52;;;;;;;;;;;10.20;99.90;;;;;;5054473;28;19932;-92
2023/03/20 12:33:39;;;;;;;;;;;10.10;99.90;;;;;;5030701;28;19977;-95
2023/03/20 12:36:11;;;;;;;;;;;10.10;99.90;;;;;;5042141;28;20053;-94
2023/03/20 12:41:52;;;;;;;;;;;10.10;99.90;;;;;;5072155;28;19916;-94
2023/03/20 12:44:27;;;;;;;;;;;10.20;99.90;;;;;;5042700;28;19913;-90
2023/03/20 12:47:00;;;;;;;;;;;10.20;99.90;;;;;;5047357;28;19944;-94
2023/03/20 12:49:31;;;;;;;;;;;10.20;99.90;;;;;;5051835;28;20430;-92
2023/03/20 12:52:00;;;;;;;;;;;10.20;99.90;;;;;;5066705;28;19916;-95
2023/03/20 12:54:39;;;;;;;;;;;10.20;99.90;;;;;;5050813;28;19996;-92
2023/03/20 12:57:15;;;;;;;;;;;10.30;99.90;;;;;;5042063;28;19908;-93
2023/03/20 12:59:47;;;;;;;;;;;10.20;99.90;;;;;;5046858;28;19934;-92
2023/03/20 13:02:21;;;;;;;;;;;10.30;99.90;;;;;;5044726;28;19909;-91
2023/03/20 13:04:50;;;;;;;;;;;10.30;99.90;;;;;;5041977;28;19909;-92
2023/03/20 13:07:28;;;;;;;;;;;10.30;99.90;;;;;;5047143;28;19910;-93
2023/03/20 13:10:03;;;;;;;;;;;10.10;99.90;;;;;;5056117;28;19939;-92
2023/03/20 13:12:42;;;;;;;;;;;10.40;99.90;;;;;;5044346;28;19908;-94
2023/03/20 13:15:11;;;;;;;;;;;10.40;99.90;;;;;;5046312;28;19913;-92
2023/03/20 13:17:43;;;;;;;;;;;10.40;99.90;;;;;;5048781;28;20372;-93
2023/03/20 13:20:36;;;;;;;;;;;10.40;99.90;;;;;;5048512;28;20383;-91
2023/03/20 13:23:05;;;;;;;;;;;10.50;99.90;;;;;;5054118;28;19913;-95
2023/03/20 13:25:38;;;;;;;;;;;10.40;99.90;;;;;;5051009;28;19938;-90
2023/03/20 13:28:25;;;;;;;;;;;10.50;99.90;;;;;;5046556;28;19909;-95
2023/03/20 13:31:12;;;;;;;;;;;10.40;99.90;;;;;;5071162;28;19920;-93
2023/03/20 13:33:44;;;;;;;;;;;10.40;99.90;;;;;;5064813;28;19920;-92
2023/03/20 13:36:29;;;;;;;;;;;10.40;99.90;;;;;;5067696;28;19913;-94
2023/03/20 13:39:14;;;;;;;;;;;10.40;99.90;;;;;;5072062;28;19919;-94
2023/03/20 13:41:40;;;;;;;;;;;10.30;99.90;;;;;;5073030;28;19905;-94
2023/03/20 13:44:11;;;;;;;;;;;10.40;99.90;;;;;;5049661;28;19928;-95
2023/03/20 13:46:45;;;;;;;;;;;10.40;99.90;;;;;;5072208;28;19943;-92
2023/03/20 13:49:31;;;;;;;;;;;10.40;99.90;;;;;;5060678;28;19999;-91
2023/03/20 13:52:11;;;;;;;;;;;10.40;99.90;;;;;;5055779;28;19954;-94
2023/03/20 13:55:12;;;;;;;;;;;10.40;99.90;;;;;;5056471;28;20402;-91
2023/03/20 13:58:08;;;;;;;;;;;10.40;99.90;;;;;;5029247;28;20008;-92
2023/03/20 14:00:37;;;;;;;;;;;10.30;99.90;;;;;;5036608;28;19963;-95
2023/03/20 14:03:14;;;;;;;;;;;10.40;99.90;;;;;;5055957;28;19916;-95
2023/03/20 14:05:41;;;;;;;;;;;10.30;99.90;;;;;;5057767;28;20279;-92
2023/03/20 14:08:19;;;;;;;;;;;10.40;99.90;;;;;;5053319;28;19932;-93
2023/03/20 14:10:47;;;;;;;;;;;10.30;99.90;;;;;;5050663;28;19976;-96
2023/03/20 14:13:16;;;;;;;;;;;10.30;99.90;;;;;;5046110;28;19909;-93
2023/03/20 14:15:48;;;;;;;;;;;10.30;99.90;;;;;;5050388;28;20433;-92
2023/03/20 14:18:15;;;;;;;;;;;10.30;99.90;;;;;;5051645;28;19909;-92
2023/03/20 14:20:41;;;;;;;;;;;10.30;99.90;;;;;;5059259;28;20353;-92
2023/03/20 14:23:16;;;;;;;;;;;10.30;99.90;;;;;;5056406;28;19951;-91
2023/03/20 14:25:44;;;;;;;;;;;10.30;99.90;;;;;;5052744;28;19914;-91
2023/03/20 14:28:12;;;;;;;;;;;10.30;99.90;;;;;;5044069;28;20010;-92
2023/03/20 14:30:41;;;;;;;;;;;10.30;99.90;;;;;;5057797;28;20364;-95
2023/03/20 14:35:43;;;;;;;;;;;10.40;99.90;;;;;;5434156;22;20300;-92
2023/03/20 14:38:09;;;;;;;;;;;10.40;99.90;;;;;;5026112;28;19913;-93
2023/03/20 14:40:42;;;;;;;;;;;10.50;99.90;;;;;;5020884;28;20414;-92
2023/03/20 14:43:17;;;;;;;;;;;10.40;99.90;;;;;;5019047;28;19917;-94
2023/03/20 14:46:22;;;;;;;;;;;10.40;99.90;;;;;;5019992;28;19909;-93
2023/03/20 14:51:55;;;;;;;;;;;10.30;99.90;;;;;;4976110;28;20113;-92
2023/03/20 14:54:21;;;;;;;;;;;10.30;99.90;;;;;;4977543;28;19942;-93
2023/03/20 14:56:50;;;;;;;;;;;10.30;99.90;;;;;;4970010;28;19934;-87
2023/03/20 14:59:16;;;;;;;;;;;10.30;99.90;;;;;;4977975;28;19902;-89
2023/03/20 15:01:44;;;;;;;;;;;10.30;99.90;;;;;;5035685;28;19910;-92
2023/03/20 15:04:12;;;;;;;;;;;10.30;99.90;;;;;;5021892;28;19999;-91
2023/03/20 15:06:44;;;;;;;;;;;10.30;99.90;;;;;;5021358;28;20261;-89
2023/03/20 15:09:10;;;;;;;;;;;10.20;99.90;;;;;;5019712;28;20000;-92
2023/03/20 15:11:36;;;;;;;;;;;10.10;99.90;;;;;;5024099;28;19939;-90
2023/03/20 15:14:04;;;;;;;;;;;10.20;99.90;;;;;;5029381;28;20269;-90
2023/03/20 15:16:36;;;;;;;;;;;10.30;99.90;;;;;;5020208;28;20000;-89
2023/03/20 15:19:13;;;;;;;;;;;10.30;99.90;;;;;;5019148;28;19913;-89
2023/03/20 15:21:40;;;;;;;;;;;10.30;99.90;;;;;;5019707;28;19964;-92
2023/03/20 15:24:05;;;;;;;;;;;10.40;99.90;;;;;;5037559;28;19936;-91
2023/03/20 15:26:32;;;;;;;;;;;10.30;99.90;;;;;;5001987;28;19917;-90
2023/03/20 15:29:06;;;;;;;;;;;10.40;99.90;;;;;;5020192;28;19913;-88
2023/03/20 15:31:33;;;;;;;;;;;10.40;99.90;;;;;;5023348;28;19917;-92
2023/03/20 15:34:15;;;;;;;;;;;10.40;99.90;;;;;;5027304;28;19955;-94
2023/03/20 15:36:52;;;;;;;;;;;10.40;99.90;;;;;;5027770;28;19925;-91
2023/03/20 15:39:24;;;;;;;;;;;10.40;99.90;;;;;;5023676;28;19960;-91
2023/03/20 15:41:53;;;;;;;;;;;10.40;99.90;;;;;;5024399;28;19945;-94